createdAt,value
2022-08-17T00:01:01.565Z,0
2022-08-17T00:04:26.749Z,0
2022-08-17T00:07:51.979Z,0
2022-08-17T00:11:17.158Z,0
2022-08-17T00:14:42.371Z,0
2022-08-17T00:18:54.026Z,0
2022-08-17T00:21:36.051Z,0
2022-08-17T00:24:57.966Z,0
2022-08-17T00:28:23.178Z,0
2022-08-17T00:31:48.371Z,0
2022-08-17T00:35:13.558Z,0
2022-08-17T00:38:38.746Z,0
2022-08-17T00:42:03.956Z,0
2022-08-17T00:45:29.158Z,0
2022-08-17T00:48:54.395Z,0
2022-08-17T00:52:19.588Z,0
2022-08-17T00:55:44.781Z,0
2022-08-17T00:59:09.973Z,0
2022-08-17T01:02:42.077Z,0
2022-08-17T01:06:00.405Z,0
2022-08-17T01:09:25.613Z,0
2022-08-17T01:12:50.994Z,0
2022-08-17T01:16:16.104Z,0
2022-08-17T01:19:41.272Z,0
2022-08-17T01:23:06.483Z,0
2022-08-17T01:26:31.699Z,0
2022-08-17T01:29:56.907Z,0
2022-08-17T01:33:22.151Z,0
2022-08-17T01:36:47.372Z,0
2022-08-17T01:40:12.627Z,0
2022-08-17T01:43:37.824Z,0
2022-08-17T01:47:03.038Z,0
2022-08-17T01:50:28.272Z,0
2022-08-17T01:53:53.483Z,0
2022-08-17T01:57:18.710Z,0
2022-08-17T02:00:47.007Z,0
2022-08-17T02:04:09.187Z,0
2022-08-17T02:07:47.946Z,0
2022-08-17T02:10:59.638Z,0
2022-08-17T02:14:24.826Z,0
2022-08-17T02:17:50.022Z,0
2022-08-17T02:21:15.231Z,0
2022-08-17T02:24:59.118Z,0
2022-08-17T02:28:05.673Z,0
2022-08-17T02:31:30.862Z,0
2022-08-17T02:34:56.117Z,0
2022-08-17T02:38:21.349Z,0
2022-08-17T02:41:46.574Z,0
2022-08-17T02:45:11.815Z,0
2022-08-17T02:48:37.074Z,0
2022-08-17T02:52:02.301Z,0
2022-08-17T02:55:27.499Z,0
2022-08-17T02:58:52.730Z,0
2022-08-17T03:02:17.971Z,0
2022-08-17T03:05:43.186Z,0
2022-08-17T03:09:08.427Z,0
2022-08-17T03:12:33.666Z,0
2022-08-17T03:15:58.879Z,0
2022-08-17T03:19:24.124Z,0
2022-08-17T03:22:53.157Z,0
2022-08-17T03:26:15.434Z,0
2022-08-17T03:29:39.849Z,0
2022-08-17T03:33:05.066Z,0
2022-08-17T03:36:30.275Z,0
2022-08-17T03:39:55.621Z,0
2022-08-17T03:43:20.752Z,0
2022-08-17T03:46:46.012Z,0
2022-08-17T03:50:11.231Z,0
2022-08-17T03:53:36.466Z,0
2022-08-17T03:57:01.716Z,0
2022-08-17T04:00:26.969Z,0
2022-08-17T04:03:52.181Z,0
2022-08-17T04:07:17.417Z,0
2022-08-17T04:10:44.841Z,0
2022-08-17T04:14:07.870Z,0
2022-08-17T04:17:44.587Z,0
2022-08-17T04:21:09.843Z,0
2022-08-17T04:24:35.056Z,0
2022-08-17T04:28:00.318Z,0
2022-08-17T04:31:25.554Z,0
2022-08-17T04:34:50.762Z,0
2022-08-17T04:38:16.046Z,0
2022-08-17T04:41:41.289Z,0
2022-08-17T04:45:06.510Z,0
2022-08-17T04:48:35.940Z,6
2022-08-17T04:51:59.020Z,6
2022-08-17T04:55:22.209Z,6
2022-08-17T04:58:47.441Z,6
2022-08-17T05:02:12.666Z,6
2022-08-17T05:05:37.944Z,6
2022-08-17T05:09:03.162Z,6
2022-08-17T05:12:28.383Z,6
2022-08-17T05:15:53.601Z,6
2022-08-17T05:19:18.807Z,6
2022-08-17T05:22:44.052Z,11
2022-08-17T05:26:11.051Z,11
2022-08-17T05:29:35.676Z,11
2022-08-17T05:32:59.665Z,11
2022-08-17T05:36:38.185Z,17
2022-08-17T05:39:50.122Z,17
2022-08-17T05:43:15.363Z,17
2022-08-17T05:46:40.556Z,17
2022-08-17T05:50:09.413Z,11
2022-08-17T05:53:30.993Z,17
2022-08-17T05:56:56.201Z,17
2022-08-17T06:00:21.425Z,17
2022-08-17T06:03:46.625Z,17
2022-08-17T06:07:11.871Z,28
2022-08-17T06:10:37.085Z,34
2022-08-17T06:14:02.300Z,34
2022-08-17T06:17:27.562Z,34
2022-08-17T06:20:52.772Z,39
2022-08-17T06:24:18.056Z,45
2022-08-17T06:27:43.326Z,45
2022-08-17T06:31:08.526Z,45
2022-08-17T06:34:33.754Z,45
2022-08-17T06:37:58.966Z,45
2022-08-17T06:41:24.185Z,39
2022-08-17T06:44:50.571Z,39
2022-08-17T06:48:14.614Z,39
2022-08-17T06:51:39.802Z,39
2022-08-17T06:55:05.062Z,28
2022-08-17T06:58:30.232Z,28
2022-08-17T07:01:55.443Z,28
2022-08-17T07:05:20.657Z,34
2022-08-17T07:08:45.868Z,34
2022-08-17T07:12:11.089Z,34
2022-08-17T07:15:36.294Z,28
2022-08-17T07:19:01.536Z,28
2022-08-17T07:22:26.769Z,23
2022-08-17T07:25:51.991Z,17
2022-08-17T07:29:17.218Z,23
2022-08-17T07:32:43.198Z,28
2022-08-17T07:36:08.419Z,28
2022-08-17T07:39:33.712Z,28
2022-08-17T07:42:58.913Z,34
2022-08-17T07:46:24.102Z,34
2022-08-17T07:49:49.482Z,34
2022-08-17T07:53:14.716Z,34
2022-08-17T07:56:39.935Z,39
2022-08-17T08:00:05.150Z,28
2022-08-17T08:03:30.355Z,39
2022-08-17T08:06:55.563Z,39
2022-08-17T08:10:20.760Z,45
2022-08-17T08:13:46.052Z,45
2022-08-17T08:17:11.187Z,45
2022-08-17T08:20:52.876Z,45
2022-08-17T08:24:01.597Z,39
2022-08-17T08:27:26.825Z,39
2022-08-17T08:30:52.016Z,39
2022-08-17T08:34:44.797Z,39
2022-08-17T08:37:48.450Z,39
2022-08-17T08:41:07.617Z,34
2022-08-17T08:44:59.265Z,34
2022-08-17T08:47:58.095Z,34
2022-08-17T08:51:23.289Z,28
2022-08-17T08:54:48.485Z,28
2022-08-17T08:58:30.603Z,28
2022-08-17T09:01:38.906Z,28
2022-08-17T09:05:17.047Z,28
2022-08-17T09:08:29.260Z,28
2022-08-17T09:12:01.645Z,28
2022-08-17T09:15:19.659Z,28
2022-08-17T09:18:59.691Z,28
2022-08-17T09:22:10.066Z,34
2022-08-17T09:25:35.286Z,34
2022-08-17T09:29:00.464Z,39
2022-08-17T09:32:25.644Z,39
2022-08-17T09:35:50.843Z,45
2022-08-17T09:39:16.027Z,23
2022-08-17T09:42:41.225Z,17
2022-08-17T09:46:06.407Z,45
2022-08-17T09:49:31.593Z,45
2022-08-17T09:52:56.792Z,45
2022-08-17T09:56:22.215Z,45
2022-08-17T09:59:47.401Z,51
2022-08-17T10:03:12.598Z,56
2022-08-17T10:06:37.842Z,62
2022-08-17T10:10:03.038Z,62
2022-08-17T10:13:28.211Z,62
2022-08-17T10:16:53.400Z,68
2022-08-17T10:20:18.753Z,73
2022-08-17T10:23:43.926Z,73
2022-08-17T10:27:09.123Z,73
2022-08-17T10:30:34.324Z,51
2022-08-17T10:33:59.531Z,90
2022-08-17T10:37:24.729Z,90
2022-08-17T10:40:49.953Z,90
2022-08-17T10:44:36.890Z,90
2022-08-17T10:47:54.824Z,79
2022-08-17T10:51:05.752Z,90
2022-08-17T10:54:30.941Z,90
2022-08-17T10:57:56.146Z,96
2022-08-17T11:01:21.405Z,84
2022-08-17T11:04:46.563Z,90
2022-08-17T11:08:11.803Z,79
2022-08-17T11:11:36.996Z,90
2022-08-17T11:15:02.187Z,84
2022-08-17T11:18:27.417Z,96
2022-08-17T11:21:52.614Z,96
2022-08-17T11:25:17.829Z,90
2022-08-17T11:28:43.081Z,45
2022-08-17T11:32:08.286Z,28
2022-08-17T11:35:33.556Z,28
2022-08-17T11:38:58.828Z,28
2022-08-17T11:42:24.117Z,28
2022-08-17T11:45:49.335Z,28
2022-08-17T11:49:14.548Z,28
2022-08-17T11:52:39.814Z,34
2022-08-17T11:56:05.028Z,39
2022-08-17T11:59:30.315Z,51
2022-08-17T12:02:55.578Z,90
2022-08-17T12:06:20.867Z,90
2022-08-17T12:09:46.089Z,90
2022-08-17T12:13:11.414Z,51
2022-08-17T12:16:36.645Z,84
2022-08-17T12:20:01.843Z,68
2022-08-17T12:23:27.052Z,90
2022-08-17T12:26:52.272Z,84
2022-08-17T12:30:17.566Z,79
2022-08-17T12:33:42.765Z,90
2022-08-17T12:37:08.006Z,84
2022-08-17T12:40:33.278Z,84
2022-08-17T12:43:58.504Z,84
2022-08-17T12:47:23.705Z,84
2022-08-17T12:50:48.910Z,84
2022-08-17T12:54:24.277Z,79
2022-08-17T12:57:49.762Z,73
2022-08-17T13:01:26.381Z,73
2022-08-17T13:04:51.553Z,73
2022-08-17T13:08:16.779Z,73
2022-08-17T13:11:42.048Z,79
2022-08-17T13:15:07.323Z,73
2022-08-17T13:18:32.638Z,73
2022-08-17T13:21:57.987Z,68
2022-08-17T13:25:23.181Z,17
2022-08-17T13:28:48.484Z,56
2022-08-17T13:32:13.901Z,56
2022-08-17T13:35:40.317Z,62
2022-08-17T13:39:04.153Z,62
2022-08-17T13:42:29.364Z,62
2022-08-17T13:46:10.143Z,62
2022-08-17T13:49:41.753Z,34
2022-08-17T13:53:00.592Z,34
2022-08-17T13:56:31.833Z,45
2022-08-17T13:59:53.927Z,62
2022-08-17T14:03:16.242Z,56
2022-08-17T14:06:52.727Z,23
2022-08-17T14:10:06.689Z,28
2022-08-17T14:13:31.909Z,39
2022-08-17T14:16:57.173Z,39
2022-08-17T14:20:22.385Z,45
2022-08-17T14:23:48.966Z,45
2022-08-17T14:27:12.923Z,45
2022-08-17T15:06:30.564Z,11
2022-08-17T15:09:55.780Z,23
2022-08-17T15:13:20.989Z,17
2022-08-17T15:16:46.212Z,23
2022-08-17T15:20:14.814Z,28
2022-08-17T15:23:36.636Z,28
2022-08-17T15:27:01.865Z,23
2022-08-17T15:30:27.084Z,17
2022-08-17T15:33:52.288Z,17
2022-08-17T15:37:17.488Z,17
2022-08-17T15:40:42.724Z,17
2022-08-17T15:44:07.898Z,23
2022-08-17T15:47:33.114Z,23
2022-08-17T15:50:58.329Z,17
2022-08-17T15:54:23.616Z,11
2022-08-17T15:57:48.719Z,11
2022-08-17T16:01:13.932Z,11
2022-08-17T16:04:40.386Z,17
2022-08-17T16:08:04.475Z,17
2022-08-17T16:11:29.706Z,17
2022-08-17T16:14:54.903Z,17
2022-08-17T16:18:20.105Z,11
2022-08-17T16:21:45.324Z,11
2022-08-17T16:25:10.555Z,11
2022-08-17T16:28:36.607Z,11
2022-08-17T17:36:09.365Z,0
